createdAt,value
2018-08-09T00:00:12.794Z,44.93
2018-08-09T00:02:42.666Z,44.90
2018-08-09T00:05:11.464Z,44.52
2018-08-09T00:07:40.295Z,44.49
2018-08-09T00:10:09.078Z,45.10
2018-08-09T00:12:38.817Z,44.58
2018-08-09T00:15:07.735Z,45.18
2018-08-09T00:17:36.628Z,44.99
2018-08-09T00:20:05.997Z,44.51
2018-08-09T00:22:34.955Z,44.83
2018-08-09T00:25:04.008Z,44.85
2018-08-09T00:27:32.839Z,45.48
2018-08-09T00:30:01.664Z,45.37
2018-08-09T00:32:30.452Z,45.78
2018-08-09T00:34:59.223Z,45.55
2018-08-09T00:37:28.069Z,44.95
2018-08-09T00:39:56.909Z,44.48
2018-08-09T00:42:25.696Z,44.13
2018-08-09T00:44:54.576Z,43.26
2018-08-09T00:47:23.342Z,43.33
2018-08-09T00:49:52.161Z,43.50
2018-08-09T00:52:20.931Z,43.49
2018-08-09T00:54:50.546Z,42.60
2018-08-09T00:57:19.364Z,42.83
2018-08-09T00:59:48.419Z,43.37
2018-08-09T01:02:17.206Z,42.52
2018-08-09T01:04:46.207Z,43.29
2018-08-09T01:07:15.424Z,42.89
2018-08-09T01:09:44.512Z,43.11
2018-08-09T01:12:13.417Z,43.21
2018-08-09T01:14:42.706Z,42.88
2018-08-09T01:17:11.975Z,42.56
2018-08-09T01:19:41.171Z,42.20
2018-08-09T01:22:10.214Z,42.86
2018-08-09T01:24:39.159Z,42.78
2018-08-09T01:27:09.532Z,42.67
2018-08-09T01:29:39.922Z,42.58
2018-08-09T01:32:08.832Z,42.30
2018-08-09T01:34:37.712Z,42.04
2018-08-09T01:37:06.940Z,42.44
2018-08-09T01:39:36.028Z,42.04
2018-08-09T01:42:16.079Z,42.18
2018-08-09T01:44:45.106Z,42.20
2018-08-09T01:47:14.168Z,42.57
2018-08-09T01:49:43.284Z,42.22
2018-08-09T01:52:12.065Z,42.23
2018-08-09T01:54:40.962Z,41.37
2018-08-09T01:57:10.101Z,41.80
2018-08-09T01:59:39.255Z,41.87
2018-08-09T02:02:08.289Z,42.26
2018-08-09T02:04:37.587Z,42.06
2018-08-09T02:07:06.615Z,41.99
2018-08-09T02:09:35.401Z,41.47
2018-08-09T02:12:05.334Z,41.79
2018-08-09T02:14:34.418Z,42.07
2018-08-09T02:17:03.193Z,41.87
2018-08-09T02:19:32.232Z,41.38
2018-08-09T02:22:01.537Z,41.37
2018-08-09T02:24:30.723Z,41.26
2018-08-09T02:26:59.686Z,41.51
2018-08-09T02:29:28.648Z,41.74
2018-08-09T02:31:57.514Z,42.02
2018-08-09T02:34:26.507Z,41.69
2018-08-09T02:36:55.644Z,42.01
2018-08-09T02:39:24.597Z,41.33
2018-08-09T02:41:58.195Z,41.76
2018-08-09T02:44:26.927Z,41.99
2018-08-09T02:46:55.753Z,41.30
2018-08-09T02:49:24.561Z,41.18
2018-08-09T02:51:53.656Z,41.78
2018-08-09T02:54:22.757Z,41.56
2018-08-09T02:56:51.762Z,41.70
2018-08-09T02:59:20.589Z,41.40
2018-08-09T03:01:49.301Z,41.29
2018-08-09T03:04:18.365Z,41.80
2018-08-09T03:06:47.317Z,41.11
2018-08-09T03:09:16.393Z,41.32
2018-08-09T03:11:45.115Z,41.88
2018-08-09T03:14:14.203Z,41.29
2018-08-09T03:16:43.022Z,41.66
2018-08-09T03:19:11.910Z,41.87
2018-08-09T03:21:41.122Z,41.03
2018-08-09T03:24:10.135Z,41.46
2018-08-09T03:26:38.954Z,41.11
2018-08-09T03:29:08.083Z,41.70
2018-08-09T03:31:37.407Z,41.08
2018-08-09T03:34:06.410Z,41.40
2018-08-09T03:36:35.597Z,41.56
2018-08-09T03:39:06.700Z,41.51
2018-08-09T03:41:35.434Z,41.21
2018-08-09T03:44:04.298Z,41.87
2018-08-09T03:46:33.069Z,41.53
2018-08-09T03:49:02.083Z,41.57
2018-08-09T03:51:30.939Z,41.31
2018-08-09T03:53:59.908Z,40.91
2018-08-09T03:56:29.234Z,41.15
2018-08-09T03:58:58.248Z,41.10
2018-08-09T04:01:27.321Z,41.56
2018-08-09T04:03:56.220Z,41.13
2018-08-09T04:06:25.942Z,41.26
2018-08-09T04:08:54.922Z,41.10
2018-08-09T04:11:23.927Z,40.78
2018-08-09T04:13:52.990Z,41.30
2018-08-09T04:16:21.903Z,40.81
2018-08-09T04:18:50.894Z,40.91
2018-08-09T04:21:19.633Z,41.18
2018-08-09T04:23:48.514Z,41.12
2018-08-09T04:26:17.345Z,41.11
2018-08-09T04:28:46.098Z,41.39
2018-08-09T04:31:14.906Z,41.03
2018-08-09T04:33:43.676Z,41.07
2018-08-09T04:36:14.288Z,41.50
2018-08-09T04:38:43.311Z,40.64
2018-08-09T04:41:12.378Z,41.45
2018-08-09T04:43:41.289Z,40.64
2018-08-09T04:46:10.616Z,41.10
2018-08-09T04:48:39.628Z,40.77
2018-08-09T04:51:08.745Z,40.87
2018-08-09T04:53:37.734Z,40.82
2018-08-09T04:56:06.903Z,41.31
2018-08-09T04:58:36.194Z,40.85
2018-08-09T05:01:05.096Z,40.95
2018-08-09T05:03:34.046Z,41.37
2018-08-09T05:06:02.995Z,40.91
2018-08-09T05:08:31.782Z,41.32
2018-08-09T05:11:00.602Z,40.58
2018-08-09T05:13:30.065Z,40.99
2018-08-09T05:15:58.888Z,41.36
2018-08-09T05:18:27.779Z,40.52
2018-08-09T05:20:56.687Z,40.52
2018-08-09T05:23:25.620Z,40.91
2018-08-09T05:25:54.659Z,41.41
2018-08-09T05:28:23.715Z,41.41
2018-08-09T05:30:52.791Z,41.15
2018-08-09T05:33:21.708Z,41.08
2018-08-09T05:35:50.990Z,40.94
2018-08-09T05:38:20.139Z,41.09
2018-08-09T05:40:49.264Z,41.40
2018-08-09T05:43:18.141Z,40.55
2018-08-09T05:45:47.305Z,40.53
2018-08-09T05:48:16.241Z,41.42
2018-08-09T05:50:46.043Z,40.72
2018-08-09T05:53:15.193Z,41.25
2018-08-09T05:55:44.237Z,41.28
2018-08-09T05:58:13.272Z,41.22
2018-08-09T06:00:42.001Z,41.36
2018-08-09T06:03:10.979Z,41.28
2018-08-09T06:05:40.058Z,41.08
2018-08-09T06:08:08.970Z,40.86
2018-08-09T06:10:37.961Z,40.88
2018-08-09T06:13:06.992Z,40.64
2018-08-09T06:15:35.783Z,40.85
2018-08-09T06:18:04.688Z,41.11
2018-08-09T06:20:33.550Z,41.45
2018-08-09T06:23:02.605Z,40.64
2018-08-09T06:25:31.396Z,41.46
2018-08-09T06:28:00.282Z,41.25
2018-08-09T06:30:29.098Z,40.81
2018-08-09T06:32:57.951Z,41.02
2018-08-09T06:35:26.842Z,40.95
2018-08-09T06:37:55.761Z,40.99
2018-08-09T06:40:24.887Z,40.98
2018-08-09T06:42:54.721Z,40.62
2018-08-09T06:45:23.510Z,41.16
2018-08-09T06:47:52.342Z,41.02
2018-08-09T06:50:21.186Z,40.93
2018-08-09T06:52:50.075Z,40.67
2018-08-09T06:55:18.801Z,40.55
2018-08-09T06:57:47.729Z,41.50
2018-08-09T07:00:16.532Z,41.58
2018-08-09T07:02:45.288Z,41.26
2018-08-09T07:05:14.540Z,41.28
2018-08-09T07:07:43.517Z,41.20
2018-08-09T07:10:12.360Z,40.97
2018-08-09T07:12:41.335Z,41.65
2018-08-09T07:15:14.583Z,40.83
2018-08-09T07:17:43.386Z,41.08
2018-08-09T07:20:12.418Z,41.21
2018-08-09T07:22:42.254Z,41.18
2018-08-09T07:25:11.346Z,41.62
2018-08-09T07:27:40.139Z,41.27
2018-08-09T07:30:11.225Z,41.21
2018-08-09T07:32:40.978Z,41.39
2018-08-09T07:35:10.811Z,40.68
2018-08-09T07:37:39.600Z,40.71
2018-08-09T07:40:10.371Z,41.31
2018-08-09T07:42:39.944Z,40.59
2018-08-09T07:45:10.794Z,40.66
2018-08-09T07:47:39.755Z,40.74
2018-08-09T07:50:09.285Z,40.63
2018-08-09T07:52:38.074Z,40.83
2018-08-09T07:55:08.562Z,40.53
2018-08-09T07:57:37.348Z,40.57
2018-08-09T08:00:08.172Z,41.02
2018-08-09T08:02:36.964Z,41.15
2018-08-09T08:05:06.421Z,41.25
2018-08-09T08:07:35.200Z,40.40
2018-08-09T08:10:04.105Z,40.58
2018-08-09T08:12:32.837Z,41.11
2018-08-09T08:15:01.843Z,40.46
2018-08-09T08:17:30.632Z,40.73
2018-08-09T08:19:59.446Z,41.11
2018-08-09T08:22:28.560Z,40.38
2018-08-09T08:24:57.606Z,40.85
2018-08-09T08:27:26.397Z,41.11
2018-08-09T08:29:55.160Z,40.30
2018-08-09T08:32:24.258Z,40.26
2018-08-09T08:34:53.334Z,40.88
2018-08-09T08:37:22.369Z,40.25
2018-08-09T08:39:51.252Z,40.09
2018-08-09T08:42:20.292Z,40.63
2018-08-09T08:44:49.544Z,40.56
2018-08-09T08:47:18.323Z,40.92
2018-08-09T08:49:47.097Z,40.90
2018-08-09T08:52:16.065Z,40.46
2018-08-09T08:54:44.866Z,40.14
2018-08-09T08:57:14.694Z,40.48
2018-08-09T08:59:43.638Z,40.69
2018-08-09T09:02:12.397Z,40.63
2018-08-09T09:04:41.398Z,40.96
2018-08-09T09:07:10.431Z,40.38
2018-08-09T09:09:39.438Z,40.15
2018-08-09T09:12:08.622Z,40.37
2018-08-09T09:14:37.413Z,40.25
2018-08-09T09:17:06.254Z,40.70
2018-08-09T09:19:35.314Z,40.39
2018-08-09T09:22:04.332Z,40.06
2018-08-09T09:24:33.201Z,40.33
2018-08-09T09:27:02.333Z,40.09
2018-08-09T09:29:31.244Z,40.09
2018-08-09T09:32:00.092Z,40.47
2018-08-09T09:34:28.919Z,40.10
2018-08-09T09:36:58.015Z,40.35
2018-08-09T09:39:27.221Z,40.88
2018-08-09T09:41:56.017Z,40.59
2018-08-09T09:44:25.315Z,40.37
2018-08-09T09:46:54.411Z,40.14
2018-08-09T09:49:23.341Z,40.10
2018-08-09T09:51:52.550Z,40.65
2018-08-09T09:54:21.358Z,40.41
2018-08-09T09:56:50.590Z,40.26
2018-08-09T09:59:19.482Z,40.23
2018-08-09T10:01:48.576Z,41.02
2018-08-09T10:04:17.785Z,40.35
2018-08-09T10:06:46.921Z,40.64
2018-08-09T10:09:16.086Z,41.04
2018-08-09T10:11:45.163Z,40.55
2018-08-09T10:14:14.125Z,40.49
2018-08-09T10:16:43.257Z,40.19
2018-08-09T10:19:12.459Z,40.19
2018-08-09T10:21:41.302Z,40.86
2018-08-09T10:24:10.342Z,40.55
2018-08-09T10:26:39.129Z,40.69
2018-08-09T10:29:08.191Z,40.64
2018-08-09T10:31:36.957Z,40.70
2018-08-09T10:34:05.915Z,40.65
2018-08-09T10:36:35.150Z,41.13
2018-08-09T10:39:04.772Z,40.73
2018-08-09T10:41:33.608Z,41.13
2018-08-09T10:44:02.704Z,40.72
2018-08-09T10:46:31.477Z,40.90
2018-08-09T10:49:00.575Z,40.85
2018-08-09T10:51:29.637Z,40.43
2018-08-09T10:53:58.774Z,40.54
2018-08-09T10:56:27.665Z,40.81
2018-08-09T10:58:56.437Z,40.52
2018-08-09T11:01:25.534Z,41.15
2018-08-09T11:03:54.610Z,40.72
2018-08-09T11:06:23.344Z,40.78
2018-08-09T11:08:52.109Z,41.04
2018-08-09T11:11:21.233Z,40.83
2018-08-09T11:13:50.270Z,41.21
2018-08-09T11:16:19.041Z,41.17
2018-08-09T11:18:48.004Z,41.20
2018-08-09T11:21:17.007Z,41.03
2018-08-09T11:23:46.046Z,41.03
2018-08-09T11:26:14.936Z,40.57
2018-08-09T11:28:44.032Z,41.08
2018-08-09T11:31:13.027Z,40.56
2018-08-09T11:33:41.733Z,41.26
2018-08-09T11:36:10.525Z,41.28
2018-08-09T11:38:39.655Z,40.68
2018-08-09T11:41:08.552Z,40.86
2018-08-09T11:43:37.340Z,41.28
2018-08-09T11:46:06.251Z,40.81
2018-08-09T11:48:35.092Z,41.47
2018-08-09T11:51:03.850Z,41.63
2018-08-09T11:53:34.956Z,40.95
2018-08-09T11:56:03.814Z,41.15
2018-08-09T11:58:32.733Z,41.75
2018-08-09T12:01:01.640Z,41.49
2018-08-09T12:03:30.601Z,41.29
2018-08-09T12:06:02.963Z,41.52
2018-08-09T12:08:31.877Z,42.50
2018-08-09T12:11:00.700Z,42.31
2018-08-09T12:13:29.621Z,42.25
2018-08-09T12:15:58.403Z,41.92
2018-08-09T12:18:27.170Z,42.39
2018-08-09T12:20:56.026Z,42.59
2018-08-09T12:23:24.861Z,42.60
2018-08-09T12:25:53.675Z,42.64
2018-08-09T12:28:22.554Z,42.70
2018-08-09T12:30:51.403Z,42.33
2018-08-09T12:33:20.342Z,43.00
2018-08-09T12:35:49.221Z,42.46
2018-08-09T12:38:18.095Z,42.36
2018-08-09T12:40:47.291Z,42.75
2018-08-09T12:43:16.262Z,42.95
2018-08-09T12:45:45.167Z,42.55
2018-08-09T12:48:14.192Z,42.69
2018-08-09T12:50:43.092Z,42.84
2018-08-09T12:53:11.937Z,42.69
2018-08-09T12:55:40.721Z,42.23
2018-08-09T12:58:09.665Z,42.90
2018-08-09T13:00:38.533Z,43.14
2018-08-09T13:03:07.442Z,43.20
2018-08-09T13:05:36.364Z,43.10
2018-08-09T13:08:05.319Z,42.77
2018-08-09T13:10:34.527Z,42.93
2018-08-09T13:13:03.627Z,43.03
2018-08-09T13:15:32.513Z,42.93
2018-08-09T13:18:01.298Z,42.83
2018-08-09T13:20:30.181Z,43.13
2018-08-09T13:22:59.091Z,43.39
2018-08-09T13:25:27.887Z,43.40
2018-08-09T13:27:56.688Z,43.34
2018-08-09T13:30:25.609Z,43.08
2018-08-09T13:32:54.447Z,43.09
2018-08-09T13:35:23.395Z,42.52
2018-08-09T13:37:52.342Z,42.46
2018-08-09T13:40:21.221Z,42.75
2018-08-09T13:42:50.870Z,43.16
2018-08-09T13:45:19.794Z,42.75
2018-08-09T13:47:48.787Z,43.17
2018-08-09T13:50:17.593Z,42.58
2018-08-09T13:52:47.380Z,42.21
2018-08-09T13:55:16.442Z,42.23
2018-08-09T13:57:45.514Z,42.54
2018-08-09T14:00:14.830Z,42.62
2018-08-09T14:02:45.044Z,42.39
2018-08-09T14:05:14.040Z,42.08
2018-08-09T14:07:43.749Z,42.22
2018-08-09T14:10:12.985Z,42.37
2018-08-09T14:12:42.655Z,42.10
2018-08-09T14:15:12.962Z,42.31
2018-08-09T14:17:41.803Z,42.43
2018-08-09T14:20:12.491Z,42.71
2018-08-09T14:22:41.398Z,41.88
2018-08-09T14:25:10.261Z,41.96
2018-08-09T14:27:39.220Z,41.88
2018-08-09T14:30:09.694Z,42.76
2018-08-09T14:32:38.623Z,42.10
2018-08-09T14:35:09.985Z,42.40
2018-08-09T14:37:38.979Z,42.58
2018-08-09T14:40:09.189Z,42.10
2018-08-09T14:42:38.090Z,41.78
2018-08-09T14:45:09.852Z,41.65
2018-08-09T14:47:38.704Z,42.55
2018-08-09T14:50:07.700Z,42.06
2018-08-09T14:52:37.140Z,42.21
2018-08-09T14:55:07.522Z,42.31
2018-08-09T14:57:36.372Z,42.28
2018-08-09T15:00:09.293Z,41.94
2018-08-09T15:02:38.114Z,41.60
2018-08-09T15:05:06.977Z,41.39
2018-08-09T15:07:35.871Z,41.38
2018-08-09T15:10:05.242Z,41.99
2018-08-09T15:12:34.180Z,42.16
2018-08-09T15:15:03.052Z,41.26
2018-08-09T15:17:31.770Z,41.63
2018-08-09T15:20:00.666Z,41.24
2018-08-09T15:22:29.948Z,42.07
2018-08-09T15:24:58.844Z,41.20
2018-08-09T15:27:27.594Z,41.87
2018-08-09T15:29:56.485Z,42.07
2018-08-09T15:32:25.590Z,41.19
2018-08-09T15:34:54.429Z,41.80
2018-08-09T15:37:23.329Z,41.51
2018-08-09T15:39:52.232Z,41.80
2018-08-09T15:42:21.176Z,41.46
2018-08-09T15:44:50.014Z,41.11
2018-08-09T15:47:18.983Z,41.17
2018-08-09T15:49:47.837Z,41.21
2018-08-09T15:52:16.512Z,41.60
2018-08-09T15:54:45.370Z,41.40
2018-08-09T15:57:14.252Z,40.96
2018-08-09T15:59:43.090Z,41.54
2018-08-09T16:02:12.885Z,41.59
2018-08-09T16:04:41.871Z,41.57
2018-08-09T16:07:10.747Z,41.58
2018-08-09T16:09:39.581Z,41.22
2018-08-09T16:12:08.457Z,41.03
2018-08-09T16:14:37.250Z,40.78
2018-08-09T16:17:06.239Z,41.50
2018-08-09T16:19:35.077Z,41.46
2018-08-09T16:22:04.009Z,40.97
2018-08-09T16:24:32.924Z,40.63
2018-08-09T16:27:01.780Z,41.15
2018-08-09T16:29:30.718Z,41.10
2018-08-09T16:31:59.638Z,41.06
2018-08-09T16:34:28.581Z,41.32
2018-08-09T16:36:57.477Z,40.65
2018-08-09T16:39:26.304Z,40.33
2018-08-09T16:41:55.133Z,41.25
2018-08-09T16:44:23.961Z,41.04
2018-08-09T16:46:52.905Z,41.28
2018-08-09T16:49:21.959Z,40.80
2018-08-09T16:51:50.857Z,40.94
2018-08-09T16:54:19.692Z,41.13
2018-08-09T16:56:48.736Z,40.87
2018-08-09T16:59:17.600Z,40.87
2018-08-09T17:01:46.539Z,40.22
2018-08-09T17:04:15.385Z,40.42
2018-08-09T17:06:44.403Z,40.74
2018-08-09T17:09:14.753Z,40.81
2018-08-09T17:11:44.798Z,41.21
2018-08-09T17:14:15.204Z,41.05
2018-08-09T17:16:44.553Z,40.85
2018-08-09T17:19:13.528Z,40.82
2018-08-09T17:21:42.486Z,40.45
2018-08-09T17:24:12.230Z,41.22
2018-08-09T17:26:41.041Z,40.90
2018-08-09T17:29:10.600Z,40.79
2018-08-09T17:31:39.562Z,40.91
2018-08-09T17:34:08.503Z,41.17
2018-08-09T17:36:37.330Z,40.34
2018-08-09T17:39:10.268Z,40.77
2018-08-09T17:41:39.250Z,40.99
2018-08-09T17:44:09.986Z,41.23
2018-08-09T17:46:38.852Z,41.25
2018-08-09T17:49:07.758Z,41.26
2018-08-09T17:51:36.626Z,40.96
2018-08-09T17:54:05.620Z,41.02
2018-08-09T17:56:34.474Z,40.78
2018-08-09T17:59:03.537Z,40.89
2018-08-09T18:01:32.427Z,40.94
2018-08-09T18:04:01.278Z,41.38
2018-08-09T18:06:30.310Z,40.66
2018-08-09T18:08:59.317Z,41.37
2018-08-09T18:11:28.444Z,41.18
2018-08-09T18:13:57.242Z,41.25
2018-08-09T18:16:26.236Z,41.47
2018-08-09T18:18:55.225Z,41.18
2018-08-09T18:21:23.993Z,40.96
2018-08-09T18:23:53.317Z,41.49
2018-08-09T18:26:22.184Z,41.04
2018-08-09T18:28:51.028Z,40.98
2018-08-09T18:31:20.614Z,41.21
2018-08-09T18:33:49.512Z,41.18
2018-08-09T18:36:18.409Z,41.23
2018-08-09T18:38:47.359Z,41.36
2018-08-09T18:41:16.188Z,40.75
2018-08-09T18:43:45.833Z,41.24
2018-08-09T18:46:14.895Z,41.52
2018-08-09T18:48:44.093Z,41.43
2018-08-09T18:51:12.978Z,41.20
2018-08-09T18:53:41.834Z,41.14
2018-08-09T18:56:10.764Z,41.49
2018-08-09T18:58:39.620Z,41.59
2018-08-09T19:01:09.139Z,41.69
2018-08-09T19:03:38.247Z,41.62
2018-08-09T19:06:07.214Z,40.78
2018-08-09T19:08:36.116Z,41.52
2018-08-09T19:11:05.116Z,41.02
2018-08-09T19:13:34.412Z,41.69
2018-08-09T19:16:03.254Z,41.67
2018-08-09T19:18:32.088Z,41.16
2018-08-09T19:21:01.018Z,41.07
2018-08-09T19:23:30.784Z,41.04
2018-08-09T19:25:59.613Z,41.31
2018-08-09T19:28:28.848Z,41.71
2018-08-09T19:30:58.015Z,41.28
2018-08-09T19:33:27.052Z,41.27
2018-08-09T19:35:55.933Z,42.03
2018-08-09T19:38:24.908Z,41.97
2018-08-09T19:40:54.444Z,41.77
2018-08-09T19:43:23.604Z,42.18
2018-08-09T19:45:55.824Z,41.43
2018-08-09T19:48:24.808Z,41.55
2018-08-09T19:50:53.726Z,41.93
2018-08-09T19:53:22.914Z,41.80
2018-08-09T19:55:51.811Z,42.28
2018-08-09T19:58:21.287Z,41.85
2018-08-09T20:00:50.222Z,42.18
2018-08-09T20:03:19.159Z,42.24
2018-08-09T20:05:48.754Z,41.58
2018-08-09T20:08:17.683Z,42.30
2018-08-09T20:10:46.543Z,42.44
2018-08-09T20:13:15.448Z,42.41
2018-08-09T20:15:44.895Z,42.39
2018-08-09T20:18:13.770Z,42.66
2018-08-09T20:20:42.613Z,42.61
2018-08-09T20:23:13.235Z,41.81
2018-08-09T20:25:42.130Z,42.29
2018-08-09T20:28:11.959Z,41.79
2018-08-09T20:30:40.814Z,42.62
2018-08-09T20:33:09.698Z,42.27
2018-08-09T20:35:39.460Z,42.55
2018-08-09T20:38:08.435Z,42.21
2018-08-09T20:40:37.244Z,42.64
2018-08-09T20:43:07.948Z,41.98
2018-08-09T20:45:37.171Z,42.31
2018-08-09T20:48:06.226Z,42.72
2018-08-09T20:50:35.177Z,42.51
2018-08-09T20:53:04.250Z,42.80
2018-08-09T20:55:33.745Z,42.43
2018-08-09T20:58:02.529Z,42.88
2018-08-09T21:00:33.478Z,42.17
2018-08-09T21:03:03.518Z,42.36
2018-08-09T21:05:36.016Z,42.84
2018-08-09T21:08:05.255Z,42.55
2018-08-09T21:10:34.290Z,42.36
2018-08-09T21:13:03.181Z,42.85
2018-08-09T21:15:32.199Z,42.29
2018-08-09T21:18:01.117Z,42.22
2018-08-09T21:20:30.472Z,42.68
2018-08-09T21:22:59.616Z,42.77
2018-08-09T21:28:37.878Z,42.78
2018-08-09T21:31:06.795Z,43.03
2018-08-09T21:33:35.697Z,42.71
2018-08-09T21:36:04.649Z,43.26
2018-08-09T21:38:33.688Z,43.19
2018-08-09T21:41:02.568Z,43.17
2018-08-09T21:43:31.454Z,42.43
2018-08-09T21:46:00.272Z,42.52
2018-08-09T21:48:29.148Z,42.33
2018-08-09T21:50:58.057Z,42.27
2018-08-09T21:53:26.897Z,42.68
2018-08-09T21:55:55.809Z,42.83
2018-08-09T21:58:24.639Z,42.78
2018-08-09T22:00:56.398Z,42.61
2018-08-09T22:03:28.512Z,43.07
2018-08-09T22:06:02.639Z,42.86
2018-08-09T22:08:36.847Z,42.88
2018-08-09T22:11:11.241Z,42.84
2018-08-09T22:13:45.223Z,43.08
2018-08-09T22:16:19.227Z,43.21
2018-08-09T22:18:53.160Z,42.93
2018-08-09T22:21:27.181Z,42.53
2018-08-09T22:23:56.027Z,42.55
2018-08-09T22:26:24.803Z,42.71
2018-08-09T22:28:53.582Z,42.34
2018-08-09T22:31:22.414Z,43.27
2018-08-09T22:33:51.256Z,43.25
2018-08-09T22:36:20.134Z,42.88
2018-08-09T22:38:48.957Z,42.96
2018-08-09T22:41:17.878Z,42.52
2018-08-09T22:43:46.718Z,43.19
2018-08-09T22:46:15.482Z,43.29
2018-08-09T22:48:44.269Z,42.38
2018-08-09T22:51:13.040Z,42.76
2018-08-09T22:53:41.845Z,43.29
2018-08-09T22:56:10.626Z,42.52
2018-08-09T22:58:39.521Z,42.51
2018-08-09T23:01:08.404Z,42.50
2018-08-09T23:03:37.253Z,43.16
2018-08-09T23:06:06.541Z,43.30
2018-08-09T23:08:35.511Z,43.20
2018-08-09T23:11:04.380Z,43.16
2018-08-09T23:13:33.241Z,42.51
2018-08-09T23:16:02.040Z,43.23
2018-08-09T23:18:30.791Z,43.37
2018-08-09T23:20:59.677Z,43.58
2018-08-09T23:23:29.060Z,42.46
2018-08-09T23:25:57.892Z,43.04
2018-08-09T23:28:26.757Z,42.88
2018-08-09T23:30:55.609Z,43.06
2018-08-09T23:33:25.516Z,43.24
2018-08-09T23:35:54.655Z,42.48
2018-08-09T23:38:23.502Z,42.89
2018-08-09T23:40:52.302Z,42.62
2018-08-09T23:43:21.180Z,42.33
2018-08-09T23:45:50.042Z,42.32
2018-08-09T23:48:18.868Z,42.85
2018-08-09T23:50:48.498Z,42.33
2018-08-09T23:53:17.422Z,43.20
2018-08-09T23:55:46.288Z,43.36
2018-08-09T23:58:15.166Z,42.62
